sensor_id;sensor_type;location;lat;lon;timestamp;P1;P2;P0
37290;PMS5003;23175;-33.706;151.094;2022-11-25T00:00:15;5;4;
37290;PMS5003;23175;-33.706;151.094;2022-11-25T00:02:46;3;3;
37290;PMS5003;23175;-33.706;151.094;2022-11-25T00:05:16;4;4;
37290;PMS5003;23175;-33.706;151.094;2022-11-25T00:07:46;3;3;
37290;PMS5003;23175;-33.706;151.094;2022-11-25T00:10:16;5;5;
37290;PMS5003;23175;-33.706;151.094;2022-11-25T00:12:46;16;16;
37290;PMS5003;23175;-33.706;151.094;2022-11-25T00:15:16;19;17;
37290;PMS5003;23175;-33.706;151.094;2022-11-25T00:17:46;3;3;
37290;PMS5003;23175;-33.706;151.094;2022-11-25T00:20:16;8;4;
37290;PMS5003;23175;-33.706;151.094;2022-11-25T00:22:46;5;5;
37290;PMS5003;23175;-33.706;151.094;2022-11-25T00:25:16;5;3;
37290;PMS5003;23175;-33.706;151.094;2022-11-25T00:27:46;3;2;
37290;PMS5003;23175;-33.706;151.094;2022-11-25T00:30:18;5;3;
37290;PMS5003;23175;-33.706;151.094;2022-11-25T00:32:48;5;4;
37290;PMS5003;23175;-33.706;151.094;2022-11-25T00:35:20;7;4;
37290;PMS5003;23175;-33.706;151.094;2022-11-25T00:37:50;3;3;
37290;PMS5003;23175;-33.706;151.094;2022-11-25T00:40:20;4;4;
37290;PMS5003;23175;-33.706;151.094;2022-11-25T00:42:51;4;2;
37290;PMS5003;23175;-33.706;151.094;2022-11-25T00:45:21;4;3;
37290;PMS5003;23175;-33.706;151.094;2022-11-25T00:47:52;3;2;
37290;PMS5003;23175;-33.706;151.094;2022-11-25T00:50:23;2;2;
37290;PMS5003;23175;-33.706;151.094;2022-11-25T00:52:54;6;4;
37290;PMS5003;23175;-33.706;151.094;2022-11-25T00:55:23;2;2;
37290;PMS5003;23175;-33.706;151.094;2022-11-25T00:57:54;1;1;
37290;PMS5003;23175;-33.706;151.094;2022-11-25T01:00:24;1;1;
37290;PMS5003;23175;-33.706;151.094;2022-11-25T01:02:54;2;2;
37290;PMS5003;23175;-33.706;151.094;2022-11-25T01:05:24;5;5;
37290;PMS5003;23175;-33.706;151.094;2022-11-25T01:07:54;5;3;
37290;PMS5003;23175;-33.706;151.094;2022-11-25T01:10:25;2;2;
37290;PMS5003;23175;-33.706;151.094;2022-11-25T01:12:55;2;2;
37290;PMS5003;23175;-33.706;151.094;2022-11-25T01:15:25;2;2;
37290;PMS5003;23175;-33.706;151.094;2022-11-25T01:17:55;4;3;
37290;PMS5003;23175;-33.706;151.094;2022-11-25T01:20:25;2;2;
37290;PMS5003;23175;-33.706;151.094;2022-11-25T01:22:55;4;3;
37290;PMS5003;23175;-33.706;151.094;2022-11-25T01:25:25;5;3;
37290;PMS5003;23175;-33.706;151.094;2022-11-25T01:27:55;2;2;
37290;PMS5003;23175;-33.706;151.094;2022-11-25T01:30:25;3;3;
37290;PMS5003;23175;-33.706;151.094;2022-11-25T01:32:55;2;2;
37290;PMS5003;23175;-33.706;151.094;2022-11-25T01:35:25;2;2;
37290;PMS5003;23175;-33.706;151.094;2022-11-25T01:37:55;3;2;
37290;PMS5003;23175;-33.706;151.094;2022-11-25T01:40:25;2;2;
37290;PMS5003;23175;-33.706;151.094;2022-11-25T01:42:55;3;2;
37290;PMS5003;23175;-33.706;151.094;2022-11-25T01:45:32;2;1;
37290;PMS5003;23175;-33.706;151.094;2022-11-25T01:48:05;0;0;
37290;PMS5003;23175;-33.706;151.094;2022-11-25T01:50:43;4;1;
37290;PMS5003;23175;-33.706;151.094;2022-11-25T01:53:15;4;2;
37290;PMS5003;23175;-33.706;151.094;2022-11-25T01:55:47;2;2;
37290;PMS5003;23175;-33.706;151.094;2022-11-25T01:58:21;3;3;
37290;PMS5003;23175;-33.706;151.094;2022-11-25T02:00:55;4;3;
37290;PMS5003;23175;-33.706;151.094;2022-11-25T02:03:26;1;1;
37290;PMS5003;23175;-33.706;151.094;2022-11-25T02:06:01;3;3;
37290;PMS5003;23175;-33.706;151.094;2022-11-25T02:08:36;2;2;
37290;PMS5003;23175;-33.706;151.094;2022-11-25T02:11:09;3;1;
37290;PMS5003;23175;-33.706;151.094;2022-11-25T02:13:41;3;3;
37290;PMS5003;23175;-33.706;151.094;2022-11-25T02:16:12;2;2;
37290;PMS5003;23175;-33.706;151.094;2022-11-25T02:18:42;2;2;
37290;PMS5003;23175;-33.706;151.094;2022-11-25T02:21:13;2;2;
37290;PMS5003;23175;-33.706;151.094;2022-11-25T02:23:46;3;2;
37290;PMS5003;23175;-33.706;151.094;2022-11-25T02:26:23;0;0;
37290;PMS5003;23175;-33.706;151.094;2022-11-25T02:28:53;4;2;
37290;PMS5003;23175;-33.706;151.094;2022-11-25T02:31:23;1;1;
37290;PMS5003;23175;-33.706;151.094;2022-11-25T02:33:53;1;1;
37290;PMS5003;23175;-33.706;151.094;2022-11-25T02:36:29;2;1;
37290;PMS5003;23175;-33.706;151.094;2022-11-25T02:39:01;2;2;
37290;PMS5003;23175;-33.706;151.094;2022-11-25T02:41:33;2;2;
37290;PMS5003;23175;-33.706;151.094;2022-11-25T02:44:05;2;2;
37290;PMS5003;23175;-33.706;151.094;2022-11-25T02:46:35;2;2;
37290;PMS5003;23175;-33.706;151.094;2022-11-25T02:49:05;1;1;
37290;PMS5003;23175;-33.706;151.094;2022-11-25T02:51:36;3;1;
37290;PMS5003;23175;-33.706;151.094;2022-11-25T02:54:08;2;2;
37290;PMS5003;23175;-33.706;151.094;2022-11-25T02:56:39;2;2;
37290;PMS5003;23175;-33.706;151.094;2022-11-25T02:59:09;2;2;
37290;PMS5003;23175;-33.706;151.094;2022-11-25T03:01:38;2;2;
37290;PMS5003;23175;-33.706;151.094;2022-11-25T03:04:08;5;2;
37290;PMS5003;23175;-33.706;151.094;2022-11-25T03:06:38;3;3;
37290;PMS5003;23175;-33.706;151.094;2022-11-25T03:09:08;3;3;
37290;PMS5003;23175;-33.706;151.094;2022-11-25T03:11:38;1;1;
37290;PMS5003;23175;-33.706;151.094;2022-11-25T03:14:08;1;1;
37290;PMS5003;23175;-33.706;151.094;2022-11-25T03:16:38;8;6;
37290;PMS5003;23175;-33.706;151.094;2022-11-25T03:19:08;10;8;
37290;PMS5003;23175;-33.706;151.094;2022-11-25T03:21:38;13;10;
37290;PMS5003;23175;-33.706;151.094;2022-11-25T03:24:08;6;6;
37290;PMS5003;23175;-33.706;151.094;2022-11-25T03:26:38;11;11;
37290;PMS5003;23175;-33.706;151.094;2022-11-25T03:29:08;6;6;
37290;PMS5003;23175;-33.706;151.094;2022-11-25T03:31:38;6;6;
37290;PMS5003;23175;-33.706;151.094;2022-11-25T03:34:08;9;9;
37290;PMS5003;23175;-33.706;151.094;2022-11-25T03:36:39;7;5;
37290;PMS5003;23175;-33.706;151.094;2022-11-25T03:39:08;10;7;
37290;PMS5003;23175;-33.706;151.094;2022-11-25T03:41:38;7;7;
37290;PMS5003;23175;-33.706;151.094;2022-11-25T03:44:08;9;6;
37290;PMS5003;23175;-33.706;151.094;2022-11-25T03:46:38;11;7;
37290;PMS5003;23175;-33.706;151.094;2022-11-25T03:49:09;9;8;
37290;PMS5003;23175;-33.706;151.094;2022-11-25T03:51:39;9;8;
37290;PMS5003;23175;-33.706;151.094;2022-11-25T03:54:09;9;7;
37290;PMS5003;23175;-33.706;151.094;2022-11-25T03:56:39;10;8;
37290;PMS5003;23175;-33.706;151.094;2022-11-25T03:59:09;9;8;
37290;PMS5003;23175;-33.706;151.094;2022-11-25T04:01:53;9;7;
37290;PMS5003;23175;-33.706;151.094;2022-11-25T04:04:24;12;10;
37290;PMS5003;23175;-33.706;151.094;2022-11-25T04:06:54;9;9;
37290;PMS5003;23175;-33.706;151.094;2022-11-25T04:09:24;11;11;
37290;PMS5003;23175;-33.706;151.094;2022-11-25T04:11:54;15;15;
37290;PMS5003;23175;-33.706;151.094;2022-11-25T04:14:25;20;17;
37290;PMS5003;23175;-33.706;151.094;2022-11-25T04:16:55;16;15;
37290;PMS5003;23175;-33.706;151.094;2022-11-25T04:19:25;14;10;
37290;PMS5003;23175;-33.706;151.094;2022-11-25T04:21:55;10;10;
37290;PMS5003;23175;-33.706;151.094;2022-11-25T04:24:25;8;8;
37290;PMS5003;23175;-33.706;151.094;2022-11-25T04:26:56;9;7;
37290;PMS5003;23175;-33.706;151.094;2022-11-25T04:29:26;12;11;
37290;PMS5003;23175;-33.706;151.094;2022-11-25T04:31:56;18;18;
37290;PMS5003;23175;-33.706;151.094;2022-11-25T04:34:27;17;17;
37290;PMS5003;23175;-33.706;151.094;2022-11-25T04:36:56;43;42;
37290;PMS5003;23175;-33.706;151.094;2022-11-25T04:39:28;26;25;
37290;PMS5003;23175;-33.706;151.094;2022-11-25T04:42:01;26;23;
37290;PMS5003;23175;-33.706;151.094;2022-11-25T04:44:33;29;26;
37290;PMS5003;23175;-33.706;151.094;2022-11-25T04:47:05;21;19;
37290;PMS5003;23175;-33.706;151.094;2022-11-25T04:49:37;11;11;
37290;PMS5003;23175;-33.706;151.094;2022-11-25T04:52:09;23;21;
37290;PMS5003;23175;-33.706;151.094;2022-11-25T04:54:41;26;26;
37290;PMS5003;23175;-33.706;151.094;2022-11-25T04:57:14;23;14;
37290;PMS5003;23175;-33.706;151.094;2022-11-25T04:59:46;38;36;
37290;PMS5003;23175;-33.706;151.094;2022-11-25T05:02:19;14;14;
37290;PMS5003;23175;-33.706;151.094;2022-11-25T05:04:56;17;14;
37290;PMS5003;23175;-33.706;151.094;2022-11-25T05:07:28;27;27;
37290;PMS5003;23175;-33.706;151.094;2022-11-25T05:10:01;29;28;
37290;PMS5003;23175;-33.706;151.094;2022-11-25T05:12:34;35;33;
37290;PMS5003;23175;-33.706;151.094;2022-11-25T05:15:08;13;11;
37290;PMS5003;23175;-33.706;151.094;2022-11-25T05:17:41;14;12;
37290;PMS5003;23175;-33.706;151.094;2022-11-25T05:20:11;10;10;
37290;PMS5003;23175;-33.706;151.094;2022-11-25T05:22:41;10;8;
37290;PMS5003;23175;-33.706;151.094;2022-11-25T05:25:11;12;10;
37290;PMS5003;23175;-33.706;151.094;2022-11-25T05:27:41;10;10;
37290;PMS5003;23175;-33.706;151.094;2022-11-25T05:30:11;10;10;
37290;PMS5003;23175;-33.706;151.094;2022-11-25T05:30:15;10;10;
37290;PMS5003;23175;-33.706;151.094;2022-11-25T05:32:48;13;10;
37290;PMS5003;23175;-33.706;151.094;2022-11-25T05:35:18;14;11;
37290;PMS5003;23175;-33.706;151.094;2022-11-25T05:37:48;11;11;
37290;PMS5003;23175;-33.706;151.094;2022-11-25T05:40:18;10;8;
37290;PMS5003;23175;-33.706;151.094;2022-11-25T05:42:48;12;11;
37290;PMS5003;23175;-33.706;151.094;2022-11-25T05:45:18;16;10;
37290;PMS5003;23175;-33.706;151.094;2022-11-25T05:47:48;12;12;
37290;PMS5003;23175;-33.706;151.094;2022-11-25T05:50:18;10;10;
37290;PMS5003;23175;-33.706;151.094;2022-11-25T05:52:48;15;10;
37290;PMS5003;23175;-33.706;151.094;2022-11-25T05:55:18;9;8;
37290;PMS5003;23175;-33.706;151.094;2022-11-25T05:57:48;17;11;
37290;PMS5003;23175;-33.706;151.094;2022-11-25T06:00:19;14;10;
37290;PMS5003;23175;-33.706;151.094;2022-11-25T06:02:49;13;12;
37290;PMS5003;23175;-33.706;151.094;2022-11-25T06:05:19;14;12;
37290;PMS5003;23175;-33.706;151.094;2022-11-25T06:07:50;13;10;
37290;PMS5003;23175;-33.706;151.094;2022-11-25T06:10:20;10;9;
37290;PMS5003;23175;-33.706;151.094;2022-11-25T06:12:50;11;10;
37290;PMS5003;23175;-33.706;151.094;2022-11-25T06:15:20;10;10;
37290;PMS5003;23175;-33.706;151.094;2022-11-25T06:17:50;9;9;
37290;PMS5003;23175;-33.706;151.094;2022-11-25T06:20:21;14;11;
37290;PMS5003;23175;-33.706;151.094;2022-11-25T06:22:51;11;9;
37290;PMS5003;23175;-33.706;151.094;2022-11-25T06:25:20;10;9;
37290;PMS5003;23175;-33.706;151.094;2022-11-25T06:27:50;12;9;
37290;PMS5003;23175;-33.706;151.094;2022-11-25T06:30:21;10;8;
37290;PMS5003;23175;-33.706;151.094;2022-11-25T06:32:53;8;7;
37290;PMS5003;23175;-33.706;151.094;2022-11-25T06:35:23;12;12;
37290;PMS5003;23175;-33.706;151.094;2022-11-25T06:37:53;9;9;
37290;PMS5003;23175;-33.706;151.094;2022-11-25T06:40:24;12;9;
37290;PMS5003;23175;-33.706;151.094;2022-11-25T06:42:54;9;9;
37290;PMS5003;23175;-33.706;151.094;2022-11-25T06:45:24;8;7;
37290;PMS5003;23175;-33.706;151.094;2022-11-25T06:47:54;9;8;
37290;PMS5003;23175;-33.706;151.094;2022-11-25T06:50:25;9;8;
37290;PMS5003;23175;-33.706;151.094;2022-11-25T06:52:55;9;8;
37290;PMS5003;23175;-33.706;151.094;2022-11-25T06:55:27;11;9;
37290;PMS5003;23175;-33.706;151.094;2022-11-25T06:57:57;7;7;
37290;PMS5003;23175;-33.706;151.094;2022-11-25T07:00:27;9;8;
37290;PMS5003;23175;-33.706;151.094;2022-11-25T07:02:57;9;7;
37290;PMS5003;23175;-33.706;151.094;2022-11-25T07:05:27;8;8;
37290;PMS5003;23175;-33.706;151.094;2022-11-25T07:07:58;7;7;
37290;PMS5003;23175;-33.706;151.094;2022-11-25T07:10:31;7;6;
37290;PMS5003;23175;-33.706;151.094;2022-11-25T07:13:04;10;7;
37290;PMS5003;23175;-33.706;151.094;2022-11-25T07:15:36;7;7;
37290;PMS5003;23175;-33.706;151.094;2022-11-25T07:18:08;9;9;
37290;PMS5003;23175;-33.706;151.094;2022-11-25T07:20:40;23;21;
37290;PMS5003;23175;-33.706;151.094;2022-11-25T07:23:12;6;6;
37290;PMS5003;23175;-33.706;151.094;2022-11-25T07:25:45;10;6;
37290;PMS5003;23175;-33.706;151.094;2022-11-25T07:28:17;13;13;
37290;PMS5003;23175;-33.706;151.094;2022-11-25T07:30:50;13;12;
37290;PMS5003;23175;-33.706;151.094;2022-11-25T07:33:23;18;16;
37290;PMS5003;23175;-33.706;151.094;2022-11-25T07:35:55;9;8;
37290;PMS5003;23175;-33.706;151.094;2022-11-25T07:38:31;12;10;
37290;PMS5003;23175;-33.706;151.094;2022-11-25T07:41:05;12;12;
37290;PMS5003;23175;-33.706;151.094;2022-11-25T07:43:42;13;10;
37290;PMS5003;23175;-33.706;151.094;2022-11-25T07:46:16;14;10;
37290;PMS5003;23175;-33.706;151.094;2022-11-25T07:48:51;9;6;
37290;PMS5003;23175;-33.706;151.094;2022-11-25T07:51:24;16;10;
37290;PMS5003;23175;-33.706;151.094;2022-11-25T07:53:56;10;10;
37290;PMS5003;23175;-33.706;151.094;2022-11-25T07:56:27;12;11;
37290;PMS5003;23175;-33.706;151.094;2022-11-25T07:58:58;11;10;
37290;PMS5003;23175;-33.706;151.094;2022-11-25T08:01:28;10;10;
37290;PMS5003;23175;-33.706;151.094;2022-11-25T08:03:58;10;10;
37290;PMS5003;23175;-33.706;151.094;2022-11-25T08:06:28;13;11;
37290;PMS5003;23175;-33.706;151.094;2022-11-25T08:08:59;10;9;
37290;PMS5003;23175;-33.706;151.094;2022-11-25T08:11:29;9;9;
37290;PMS5003;23175;-33.706;151.094;2022-11-25T08:14:00;9;8;
37290;PMS5003;23175;-33.706;151.094;2022-11-25T08:16:30;13;12;
37290;PMS5003;23175;-33.706;151.094;2022-11-25T08:19:01;8;8;
37290;PMS5003;23175;-33.706;151.094;2022-11-25T08:21:32;12;10;
37290;PMS5003;23175;-33.706;151.094;2022-11-25T08:24:02;10;9;
37290;PMS5003;23175;-33.706;151.094;2022-11-25T08:26:33;11;8;
37290;PMS5003;23175;-33.706;151.094;2022-11-25T08:29:03;8;7;
37290;PMS5003;23175;-33.706;151.094;2022-11-25T08:31:35;10;8;
37290;PMS5003;23175;-33.706;151.094;2022-11-25T08:34:05;7;7;
37290;PMS5003;23175;-33.706;151.094;2022-11-25T08:36:36;9;7;
37290;PMS5003;23175;-33.706;151.094;2022-11-25T08:39:06;6;5;
37290;PMS5003;23175;-33.706;151.094;2022-11-25T08:41:36;7;6;
37290;PMS5003;23175;-33.706;151.094;2022-11-25T08:44:06;5;5;
37290;PMS5003;23175;-33.706;151.094;2022-11-25T08:46:37;10;8;
37290;PMS5003;23175;-33.706;151.094;2022-11-25T08:49:07;9;7;
37290;PMS5003;23175;-33.706;151.094;2022-11-25T08:51:39;7;7;
37290;PMS5003;23175;-33.706;151.094;2022-11-25T08:54:10;9;9;
37290;PMS5003;23175;-33.706;151.094;2022-11-25T08:56:40;10;8;
37290;PMS5003;23175;-33.706;151.094;2022-11-25T08:59:10;8;8;
37290;PMS5003;23175;-33.706;151.094;2022-11-25T09:01:40;7;6;
37290;PMS5003;23175;-33.706;151.094;2022-11-25T09:04:10;10;8;
37290;PMS5003;23175;-33.706;151.094;2022-11-25T09:06:40;9;9;
37290;PMS5003;23175;-33.706;151.094;2022-11-25T09:09:10;10;8;
37290;PMS5003;23175;-33.706;151.094;2022-11-25T09:11:40;7;7;
37290;PMS5003;23175;-33.706;151.094;2022-11-25T09:14:10;6;6;
37290;PMS5003;23175;-33.706;151.094;2022-11-25T09:16:40;8;8;
37290;PMS5003;23175;-33.706;151.094;2022-11-25T09:19:11;13;9;
37290;PMS5003;23175;-33.706;151.094;2022-11-25T09:21:42;11;8;
37290;PMS5003;23175;-33.706;151.094;2022-11-25T09:24:12;10;7;
37290;PMS5003;23175;-33.706;151.094;2022-11-25T09:26:43;11;11;
37290;PMS5003;23175;-33.706;151.094;2022-11-25T09:29:13;8;7;
37290;PMS5003;23175;-33.706;151.094;2022-11-25T09:31:43;13;10;
37290;PMS5003;23175;-33.706;151.094;2022-11-25T09:34:14;10;9;
37290;PMS5003;23175;-33.706;151.094;2022-11-25T09:36:44;8;7;
37290;PMS5003;23175;-33.706;151.094;2022-11-25T09:39:14;10;9;
37290;PMS5003;23175;-33.706;151.094;2022-11-25T09:41:49;10;8;
37290;PMS5003;23175;-33.706;151.094;2022-11-25T09:44:33;8;8;
37290;PMS5003;23175;-33.706;151.094;2022-11-25T09:47:15;9;9;
37290;PMS5003;23175;-33.706;151.094;2022-11-25T09:49:58;10;10;
37290;PMS5003;23175;-33.706;151.094;2022-11-25T09:52:43;8;8;
37290;PMS5003;23175;-33.706;151.094;2022-11-25T09:55:21;10;8;
37290;PMS5003;23175;-33.706;151.094;2022-11-25T09:57:56;12;9;
37290;PMS5003;23175;-33.706;151.094;2022-11-25T10:00:36;9;9;
37290;PMS5003;23175;-33.706;151.094;2022-11-25T10:03:11;14;8;
37290;PMS5003;23175;-33.706;151.094;2022-11-25T10:05:48;6;6;
37290;PMS5003;23175;-33.706;151.094;2022-11-25T10:08:26;8;8;
37290;PMS5003;23175;-33.706;151.094;2022-11-25T10:11:00;11;7;
37290;PMS5003;23175;-33.706;151.094;2022-11-25T10:13:43;11;7;
37290;PMS5003;23175;-33.706;151.094;2022-11-25T10:16:21;9;9;
37290;PMS5003;23175;-33.706;151.094;2022-11-25T10:19:01;7;7;
37290;PMS5003;23175;-33.706;151.094;2022-11-25T10:21:39;13;9;
37290;PMS5003;23175;-33.706;151.094;2022-11-25T10:24:10;8;7;
37290;PMS5003;23175;-33.706;151.094;2022-11-25T10:26:43;11;9;
37290;PMS5003;23175;-33.706;151.094;2022-11-25T10:29:20;6;6;
37290;PMS5003;23175;-33.706;151.094;2022-11-25T10:31:54;11;10;
37290;PMS5003;23175;-33.706;151.094;2022-11-25T10:34:35;11;10;
37290;PMS5003;23175;-33.706;151.094;2022-11-25T10:37:10;10;8;
37290;PMS5003;23175;-33.706;151.094;2022-11-25T10:39:46;10;8;
37290;PMS5003;23175;-33.706;151.094;2022-11-25T10:42:17;13;7;
37290;PMS5003;23175;-33.706;151.094;2022-11-25T10:44:50;9;8;
37290;PMS5003;23175;-33.706;151.094;2022-11-25T10:47:25;9;7;
37290;PMS5003;23175;-33.706;151.094;2022-11-25T10:50:10;12;10;
37290;PMS5003;23175;-33.706;151.094;2022-11-25T10:52:45;8;6;
37290;PMS5003;23175;-33.706;151.094;2022-11-25T10:55:23;8;6;
37290;PMS5003;23175;-33.706;151.094;2022-11-25T10:57:55;6;5;
37290;PMS5003;23175;-33.706;151.094;2022-11-25T11:00:28;8;8;
37290;PMS5003;23175;-33.706;151.094;2022-11-25T11:03:00;10;8;
37290;PMS5003;23175;-33.706;151.094;2022-11-25T11:05:46;7;7;
37290;PMS5003;23175;-33.706;151.094;2022-11-25T11:08:18;17;10;
37290;PMS5003;23175;-33.706;151.094;2022-11-25T11:11:08;7;7;
37290;PMS5003;23175;-33.706;151.094;2022-11-25T11:13:45;7;6;
37290;PMS5003;23175;-33.706;151.094;2022-11-25T11:16:25;13;9;
37290;PMS5003;23175;-33.706;151.094;2022-11-25T11:18:59;9;7;
37290;PMS5003;23175;-33.706;151.094;2022-11-25T11:21:31;12;8;
37290;PMS5003;23175;-33.706;151.094;2022-11-25T11:24:22;9;8;
37290;PMS5003;23175;-33.706;151.094;2022-11-25T11:27:02;6;5;
37290;PMS5003;23175;-33.706;151.094;2022-11-25T11:29:34;11;6;
37290;PMS5003;23175;-33.706;151.094;2022-11-25T11:32:04;7;7;
37290;PMS5003;23175;-33.706;151.094;2022-11-25T11:34:49;8;8;
37290;PMS5003;23175;-33.706;151.094;2022-11-25T11:37:34;8;7;
37290;PMS5003;23175;-33.706;151.094;2022-11-25T11:40:18;8;7;
37290;PMS5003;23175;-33.706;151.094;2022-11-25T11:43:14;9;8;
37290;PMS5003;23175;-33.706;151.094;2022-11-25T11:46:01;11;8;
37290;PMS5003;23175;-33.706;151.094;2022-11-25T11:48:44;7;6;
37290;PMS5003;23175;-33.706;151.094;2022-11-25T11:51:25;8;7;
37290;PMS5003;23175;-33.706;151.094;2022-11-25T11:54:04;9;5;
37290;PMS5003;23175;-33.706;151.094;2022-11-25T11:56:40;8;8;
37290;PMS5003;23175;-33.706;151.094;2022-11-25T11:59:20;8;7;
37290;PMS5003;23175;-33.706;151.094;2022-11-25T12:02:11;7;7;
37290;PMS5003;23175;-33.706;151.094;2022-11-25T12:05:01;8;7;
37290;PMS5003;23175;-33.706;151.094;2022-11-25T12:07:42;9;9;
37290;PMS5003;23175;-33.706;151.094;2022-11-25T12:10:21;8;7;
37290;PMS5003;23175;-33.706;151.094;2022-11-25T12:12:57;9;8;
37290;PMS5003;23175;-33.706;151.094;2022-11-25T12:15:42;10;7;
37290;PMS5003;23175;-33.706;151.094;2022-11-25T12:18:27;11;11;
37290;PMS5003;23175;-33.706;151.094;2022-11-25T12:21:07;9;7;
37290;PMS5003;23175;-33.706;151.094;2022-11-25T12:23:51;7;7;
37290;PMS5003;23175;-33.706;151.094;2022-11-25T12:26:28;9;9;
37290;PMS5003;23175;-33.706;151.094;2022-11-25T12:29:04;10;8;
37290;PMS5003;23175;-33.706;151.094;2022-11-25T12:31:43;8;8;
37290;PMS5003;23175;-33.706;151.094;2022-11-25T12:34:20;16;14;
37290;PMS5003;23175;-33.706;151.094;2022-11-25T12:37:01;8;8;
37290;PMS5003;23175;-33.706;151.094;2022-11-25T12:39:38;16;13;
37290;PMS5003;23175;-33.706;151.094;2022-11-25T12:42:14;11;10;
37290;PMS5003;23175;-33.706;151.094;2022-11-25T12:44:51;8;8;
37290;PMS5003;23175;-33.706;151.094;2022-11-25T12:47:24;11;9;
37290;PMS5003;23175;-33.706;151.094;2022-11-25T12:49:54;10;10;
37290;PMS5003;23175;-33.706;151.094;2022-11-25T12:52:47;13;13;
37290;PMS5003;23175;-33.706;151.094;2022-11-25T12:55:22;13;12;
37290;PMS5003;23175;-33.706;151.094;2022-11-25T12:57:59;19;18;
37290;PMS5003;23175;-33.706;151.094;2022-11-25T13:01:23;23;19;
37290;PMS5003;23175;-33.706;151.094;2022-11-25T13:04:21;13;13;
37290;PMS5003;23175;-33.706;151.094;2022-11-25T13:07:35;11;11;
37290;PMS5003;23175;-33.706;151.094;2022-11-25T13:10:47;19;17;
37290;PMS5003;23175;-33.706;151.094;2022-11-25T13:13:31;18;11;
37290;PMS5003;23175;-33.706;151.094;2022-11-25T13:16:14;14;12;
37290;PMS5003;23175;-33.706;151.094;2022-11-25T13:18:44;9;9;
37290;PMS5003;23175;-33.706;151.094;2022-11-25T13:21:15;13;11;
37290;PMS5003;23175;-33.706;151.094;2022-11-25T13:23:47;10;9;
37290;PMS5003;23175;-33.706;151.094;2022-11-25T13:26:51;11;9;
37290;PMS5003;23175;-33.706;151.094;2022-11-25T13:29:52;12;10;
37290;PMS5003;23175;-33.706;151.094;2022-11-25T13:32:25;9;8;
37290;PMS5003;23175;-33.706;151.094;2022-11-25T13:35:28;10;10;
37290;PMS5003;23175;-33.706;151.094;2022-11-25T13:38:06;10;10;
37290;PMS5003;23175;-33.706;151.094;2022-11-25T13:41:03;11;10;
37290;PMS5003;23175;-33.706;151.094;2022-11-25T13:43:54;7;7;
37290;PMS5003;23175;-33.706;151.094;2022-11-25T13:46:28;11;10;
37290;PMS5003;23175;-33.706;151.094;2022-11-25T13:49:04;10;8;
37290;PMS5003;23175;-33.706;151.094;2022-11-25T13:51:51;12;10;
37290;PMS5003;23175;-33.706;151.094;2022-11-25T13:54:24;10;10;
37290;PMS5003;23175;-33.706;151.094;2022-11-25T13:57:16;11;8;
37290;PMS5003;23175;-33.706;151.094;2022-11-25T13:59:53;11;10;
37290;PMS5003;23175;-33.706;151.094;2022-11-25T14:02:33;14;10;
37290;PMS5003;23175;-33.706;151.094;2022-11-25T14:05:08;13;10;
37290;PMS5003;23175;-33.706;151.094;2022-11-25T14:08:03;9;9;
37290;PMS5003;23175;-33.706;151.094;2022-11-25T14:10:48;16;13;
37290;PMS5003;23175;-33.706;151.094;2022-11-25T14:13:32;14;10;
37290;PMS5003;23175;-33.706;151.094;2022-11-25T14:16:21;12;9;
37290;PMS5003;23175;-33.706;151.094;2022-11-25T14:19:14;13;12;
37290;PMS5003;23175;-33.706;151.094;2022-11-25T14:22:05;13;11;
37290;PMS5003;23175;-33.706;151.094;2022-11-25T14:24:46;12;11;
37290;PMS5003;23175;-33.706;151.094;2022-11-25T14:27:19;10;8;
37290;PMS5003;23175;-33.706;151.094;2022-11-25T14:29:53;14;10;
37290;PMS5003;23175;-33.706;151.094;2022-11-25T14:32:27;13;9;
37290;PMS5003;23175;-33.706;151.094;2022-11-25T14:35:02;9;9;
37290;PMS5003;23175;-33.706;151.094;2022-11-25T14:37:39;12;12;
37290;PMS5003;23175;-33.706;151.094;2022-11-25T14:40:17;14;11;
37290;PMS5003;23175;-33.706;151.094;2022-11-25T14:42:51;11;11;
37290;PMS5003;23175;-33.706;151.094;2022-11-25T14:45:30;13;12;
37290;PMS5003;23175;-33.706;151.094;2022-11-25T14:48:12;13;10;
37290;PMS5003;23175;-33.706;151.094;2022-11-25T14:50:53;13;13;
37290;PMS5003;23175;-33.706;151.094;2022-11-25T14:53:25;12;11;
37290;PMS5003;23175;-33.706;151.094;2022-11-25T14:55:55;10;9;
37290;PMS5003;23175;-33.706;151.094;2022-11-25T14:58:27;10;10;
37290;PMS5003;23175;-33.706;151.094;2022-11-25T15:00:59;19;12;
37290;PMS5003;23175;-33.706;151.094;2022-11-25T15:03:33;11;11;
37290;PMS5003;23175;-33.706;151.094;2022-11-25T15:06:04;10;10;
37290;PMS5003;23175;-33.706;151.094;2022-11-25T15:08:41;11;11;
37290;PMS5003;23175;-33.706;151.094;2022-11-25T15:11:13;13;13;
37290;PMS5003;23175;-33.706;151.094;2022-11-25T15:13:47;11;11;
37290;PMS5003;23175;-33.706;151.094;2022-11-25T15:16:21;12;9;
37290;PMS5003;23175;-33.706;151.094;2022-11-25T15:18:58;10;10;
37290;PMS5003;23175;-33.706;151.094;2022-11-25T15:21:29;14;12;
37290;PMS5003;23175;-33.706;151.094;2022-11-25T15:24:01;12;12;
37290;PMS5003;23175;-33.706;151.094;2022-11-25T15:26:33;15;12;
37290;PMS5003;23175;-33.706;151.094;2022-11-25T15:29:09;10;10;
37290;PMS5003;23175;-33.706;151.094;2022-11-25T15:31:40;14;9;
37290;PMS5003;23175;-33.706;151.094;2022-11-25T15:34:13;10;10;
37290;PMS5003;23175;-33.706;151.094;2022-11-25T15:36:44;10;10;
37290;PMS5003;23175;-33.706;151.094;2022-11-25T15:39:20;11;10;
37290;PMS5003;23175;-33.706;151.094;2022-11-25T15:41:54;12;10;
37290;PMS5003;23175;-33.706;151.094;2022-11-25T15:44:31;11;11;
37290;PMS5003;23175;-33.706;151.094;2022-11-25T15:47:05;12;12;
37290;PMS5003;23175;-33.706;151.094;2022-11-25T15:49:47;10;9;
37290;PMS5003;23175;-33.706;151.094;2022-11-25T15:52:23;11;11;
37290;PMS5003;23175;-33.706;151.094;2022-11-25T15:54:58;12;12;
37290;PMS5003;23175;-33.706;151.094;2022-11-25T15:57:33;13;13;
37290;PMS5003;23175;-33.706;151.094;2022-11-25T16:00:13;14;12;
37290;PMS5003;23175;-33.706;151.094;2022-11-25T16:02:52;13;13;
37290;PMS5003;23175;-33.706;151.094;2022-11-25T16:05:27;11;10;
37290;PMS5003;23175;-33.706;151.094;2022-11-25T16:08:25;9;9;
37290;PMS5003;23175;-33.706;151.094;2022-11-25T16:11:08;14;10;
37290;PMS5003;23175;-33.706;151.094;2022-11-25T16:13:42;12;11;
37290;PMS5003;23175;-33.706;151.094;2022-11-25T16:16:16;14;11;
37290;PMS5003;23175;-33.706;151.094;2022-11-25T16:18:52;12;10;
37290;PMS5003;23175;-33.706;151.094;2022-11-25T16:21:38;11;9;
37290;PMS5003;23175;-33.706;151.094;2022-11-25T16:24:18;10;9;
37290;PMS5003;23175;-33.706;151.094;2022-11-25T16:26:58;11;11;
37290;PMS5003;23175;-33.706;151.094;2022-11-25T16:29:32;17;14;